Terminal Aerodrome Forecast
Issued by NWS

Home | Current Version | Previous Version | Text Only | Print | Product List | Glossary On
Versions: 1 2 3 4 5 6 7 8 9 10 11 12 13 14 15 16 17 18 19
941
FTUS45 KPIH 201140
TAFSUN
TAF
KSUN 201140Z 2012/2118 31008KT P6SM VCSH BKN030 OVC050
     FM201400 17008KT 6SM -SHRASN BR BKN015 OVC040
     FM201700 19010KT P6SM -SHRA SCT015 BKN025 OVC040
     FM210300 31009KT P6SM -SHRA BKN015 OVC025
     FM210700 31008KT P6SM BKN060
      AMD LTD TO CLD VIS AND WIND TIL 201300=

USA.gov is the U.S. government's official web portal to all federal, state and local government web resources and services.